• Join FlightAware (Why Join?)
  • Login
  • US Flag 
04:50PM EDT


 

Airport Tracker/Info


-or-


 

Live Flight TrackerFlight Track Log ✈ PVL1910 ✈ 10-Jul-2013 ✈ CYUL - CYZV

Flight Track Log - Related Links

Times and Time Zones

All times are in EDT time to prevent confusion due to time zone crossing. See the PVL1910 flight status page for this flight to view local times or setup timezone preferences in your user account.

Time Position Orientation Groundspeed Altitude Reporting Facility
EDT Latitude Longitude Course Direction KTS MPH feet Rate Location/Type
03:03PM 45.4667 -73.7000 215° Southwest 20 23 200  Level Montreal Center
03:04PM 45.4500 -73.7167 215° Southwest 100 115 100 720 Descending Montreal Center
03:05PM 45.4500 -73.7667 270° West 160 184 1,700 1,620 Climbing Montreal Center
03:06PM 45.4833 -73.8167 314° West 180 207 3,400 1,500 Climbing Montreal Center
03:07PM 45.5333 -73.8167 360° North 200 230 4,700 1,320 Climbing Montreal Center
03:08PM 45.5833 -73.8333 347° North 200 230 6,100 1,320 Climbing Montreal Center
03:09PM 45.6500 -73.7833 28° Northeast 230 265 7,400 1,200 Climbing Montreal Center
03:10PM 45.7000 -73.7333 35° Northeast 230 265 8,600 1,200 Climbing Montreal Center
03:11PM 45.7500 -73.6667 43° Northeast 240 276 9,800 1,140 Climbing Montreal Center
03:12PM 45.8000 -73.6167 35° Northeast 240 276 10,900 1,080 Climbing Montreal Center
03:13PM 45.8500 -73.5333 49° Northeast 240 276 12,000 960 Climbing Montreal Center
03:14PM 45.9000 -73.4833 35° Northeast 240 276 12,900 900 Climbing Montreal Center
03:15PM 45.9500 -73.4167 43° Northeast 250 288 13,800 780 Climbing Montreal Center
03:16PM 46.0000 -73.3333 49° Northeast 250 288 14,500 660 Climbing Montreal Center
03:17PM 46.0667 -73.2833 27° Northeast 250 288 15,200 660 Climbing Montreal Center
03:18PM 46.1167 -73.2167 43° Northeast 260 299 15,900 600 Climbing Montreal Center
03:19PM 46.1833 -73.1333 41° Northeast 260 299 16,500 660 Climbing Montreal Center
03:20PM 46.2167 -73.0833 46° Northeast 260 299 17,300 780 Climbing Montreal Center
03:21PM 46.2667 -73.0000 49° Northeast 260 299 18,100 780 Climbing Montreal Center
03:22PM 46.3333 -72.9333 35° Northeast 260 299 18,900 660 Climbing Montreal Center
03:23PM 46.3667 -72.8500 60° Northeast 260 299 19,500 600 Climbing Montreal Center
03:24PM 46.4167 -72.7833 43° Northeast 250 288 20,200 600 Climbing Montreal Center
03:25PM 46.4667 -72.6833 54° Northeast 260 299 20,800 240 Climbing Montreal Center
03:26PM 46.5000 -72.6000 60° Northeast 270 311 20,700 -240 Descending Montreal Center
03:27PM 46.5667 -72.5000 46° Northeast 290 334 20,400 -300 Descending Montreal Center
03:28PM 46.6000 -72.4000 64° Northeast 310 357 20,100 -300 Descending Montreal Center
03:29PM 46.6500 -72.2833 58° Northeast 320 368 19,800 -300 Descending Montreal Center
03:30PM 46.7167 -72.1667 50° Northeast 320 368 19,500 -180 Descending Montreal Center
03:31PM 46.7667 -72.0667 54° Northeast 320 368 19,500 600 Level Montreal Center
03:32PM 46.8167 -71.9667 54° Northeast 300 345 20,800 1,200 Climbing Montreal Center
03:33PM 46.8500 -71.9000 54° Northeast 260 299 21,900 600 Climbing Montreal Center
03:34PM 46.9000 -71.8333 42° Northeast 250 288 22,100 420 Climbing Montreal Center
03:35PM 46.9667 -71.7833 27° Northeast 260 299 22,800 420 Climbing Montreal Center
03:36PM 47.0000 -71.6833 64° Northeast 260 299 23,000 60 Climbing Montreal Center
03:37PM 47.0500 -71.5833 54° Northeast 280 322 23,000  Level Montreal Center
03:38PM 47.1000 -71.4833 54° Northeast 290 334 23,000  Level Montreal Center
03:39PM 47.1333 -71.3833 64° Northeast 300 345 23,000  Level Montreal Center
03:40PM 47.1833 -71.2667 58° Northeast 300 345 23,000  Level Montreal Center
03:41PM 47.2333 -71.1667 54° Northeast 310 357 23,000  Level Montreal Center
03:42PM 47.2833 -71.0667 54° Northeast 310 357 23,000  Level Montreal Center
03:43PM 47.3167 -70.9667 64° Northeast 310 357 23,000  Level Montreal Center
03:44PM 47.3667 -70.8667 54° Northeast 310 357 23,000  Level Montreal Center
03:45PM 47.4167 -70.7500 58° Northeast 310 357 23,000  Level Montreal Center
03:46PM 47.4833 -70.6500 45° Northeast 310 357 23,000  Level Montreal Center
03:47PM 47.5333 -70.5667 48° Northeast 310 357 23,000  Level Montreal Center
03:48PM 47.6000 -70.4667 45° Northeast 310 357 23,000  Level Montreal Center
03:49PM 47.6500 -70.3833 48° Northeast 310 357 23,000  Level Montreal Center
03:50PM 47.7167 -70.2667 50° Northeast 310 357 23,000  Level Montreal Center
03:51PM 47.7667 -70.1833 48° Northeast 310 357 23,000  Level Montreal Center
03:52PM 47.8333 -70.1000 40° Northeast 310 357 23,000  Level Montreal Center
03:53PM 47.9000 -70.0000 45° Northeast 320 368 23,000  Level Montreal Center
03:54PM 47.9667 -69.9167 40° Northeast 310 357 23,000  Level Montreal Center
03:55PM 48.0167 -69.8167 53° Northeast 310 357 23,000  Level Montreal Center
03:56PM 48.0833 -69.7333 40° Northeast 320 368 23,000  Level Montreal Center
03:57PM 48.1500 -69.6167 49° Northeast 320 368 23,000  Level Montreal Center
03:58PM 48.2000 -69.5333 48° Northeast 320 368 23,000  Level Montreal Center
03:59PM 48.2667 -69.4167 49° Northeast 320 368 23,000  Level Montreal Center
04:00PM 48.3333 -69.3333 40° Northeast 320 368 23,000 -180 Level Montreal Center
04:01PM 48.3833 -69.2333 53° Northeast 320 368 22,700 -420 Descending Montreal Center
04:02PM 48.4500 -69.1500 40° Northeast 330 380 22,200 -480 Descending Montreal Center
04:03PM 48.5333 -69.0333 43° Northeast 340 391 21,800 -420 Descending Montreal Center
04:04PM 48.5833 -68.9167 57° Northeast 340 391 21,400 -300 Descending Montreal Center
04:05PM 48.6500 -68.8333 40° Northeast 340 391 21,200 -240 Descending Montreal Center
04:06PM 48.7167 -68.7167 49° Northeast 330 380 21,000 -120 Descending Montreal Center
04:07PM 48.7833 -68.6167 45° Northeast 320 368 21,000  Level Montreal Center
04:08PM 48.8500 -68.5167 45° Northeast 320 368 21,000  Level Montreal Center
04:09PM 48.9000 -68.4333 48° Northeast 310 357 21,000  Level Montreal Center
04:10PM 48.9500 -68.3333 53° Northeast 310 357 21,000  Level Montreal Center
04:11PM 49.0167 -68.2333 45° Northeast 310 357 21,000  Level Montreal Center
04:12PM 49.0833 -68.1333 44° Northeast 310 357 21,000  Level Montreal Center
04:13PM 49.1333 -68.0333 53° Northeast 320 368 21,000  Level Montreal Center
04:14PM 49.2000 -67.9500 39° Northeast 310 357 21,000 -60 Level Montreal Center
04:15PM 49.2667 -67.8333 49° Northeast 310 357 20,900 -420 Descending Montreal Center
04:16PM 49.3167 -67.7500 47° Northeast 320 368 20,200 -780 Descending Montreal Center
04:17PM 49.4000 -67.6333 42° Northeast 330 380 19,400 -840 Descending Montreal Center
04:18PM 49.4667 -67.5500 39° Northeast 340 391 18,600 -1,020 Descending Montreal Center
04:19PM 49.5333 -67.4500 44° Northeast 340 391 17,400 -960 Descending Montreal Center
04:20PM 49.6167 -67.3333 42° Northeast 340 391 16,700 -1,200 Descending Montreal Center
04:21PM 49.6667 -67.2500 47° Northeast 340 391 15,100 -1,500 Descending Montreal Center
04:22PM 49.7500 -67.1500 38° Northeast 330 380 13,700 -1,500 Descending Montreal Center
04:23PM 49.8000 -67.0667 47° Northeast 320 368 12,100 -1,500 Descending Montreal Center
04:24PM 49.8667 -66.9667 44° Northeast 310 357 10,700 -1,500 Descending Montreal Center
04:25PM 49.9333 -66.8833 39° Northeast 300 345 9,100 -1,500 Descending Montreal Center
04:26PM 49.9833 -66.8000 47° Northeast 300 345 7,700 -1,320 Descending Montreal Center
04:27PM 50.0500 -66.7000 44° Northeast 300 345 6,500 -1,380 Descending Montreal Center
04:28PM 50.1167 -66.6167 39° Northeast 290 334 5,000 -1,440 Descending Montreal Center
04:29PM 50.1500 -66.5167 62° Northeast 260 299 3,700 -1,260 Descending Montreal Center
04:30PM 50.1667 -66.4167 75° East 230 265 2,500 -1,140 Descending Montreal Center
04:31PM 50.1833 -66.3333 73° East 190 219 1,500 -900 Descending Montreal Center
04:32PM 50.2000 -66.2667 69° East 150 173 800 -660 Descending Montreal Center
04:33PM 50.2167 -66.2500 33° Northeast 120 138 200 -600 Descending Montreal Center